Overview Statistics Trail Chart Weather Telemetry Raw packets
 

This is the latest recevied weather packets stored in our database for station/object S51UL-6. If no packets are shown the sender has not sent any weather packets the latest 10 day(s).

<< 40 41 42 43 44 45 46 >>
Time Temp. Humidity Pressure Rain* Wind** Luminosity Snow
1788345681 29.44° C 57% 1021.9 hPa 10.41 mm - - -
1788345381 28.33° C 57% 1022.2 hPa 7.62 mm - - -
1788345081 27.78° C 57% 1022.3 hPa 7.62 mm - - -
1788344181 26.67° C 60% 1022.3 hPa 8.89 mm - - -
1788342381 25.56° C 65% 1022.6 hPa 7.11 mm - - -
1788342081 25.56° C 66% 1022.8 hPa 7.11 mm - - -
1788339993 24.44° C 68% 1022.7 hPa 6.6 mm - - -
1788336983 23.89° C 73% 1023 hPa 9.91 mm - - -
1788334283 19.44° C 88% 1023.2 hPa 0.51 mm - - -
1788333983 18.89° C 89% 1023.1 hPa 0.51 mm - - -
1788333083 17.78° C 89% 1022.9 hPa 0 mm - - -
1788332484 17.22° C 90% 1022.8 hPa 0 mm - - -
1788331284 16.67° C 90% 1022.8 hPa 0 mm - - -
1788330984 16.67° C 90% 1022.9 hPa 0 mm - - -
1788330588 16.67° C 90% 1022.8 hPa 0 mm - - -
1788330384 16.67° C 90% 1022.8 hPa 0 mm - - -
1788329185 16.11° C 90% 1023 hPa 0 mm - - -
1788328887 16.11° C 90% 1023 hPa 0 mm - - -
1788328584 16.11° C 90% 1022.9 hPa 0 mm - - -
1788327984 16.11° C 90% 1023 hPa 0 mm - - -
1788327385 15.56° C 90% 1023 hPa 0 mm - - -
1788326484 15.56° C 90% 1022.8 hPa 0 mm - - -
1788326184 15.56° C 90% 1022.7 hPa 0 mm - - -
1788325889 15.56° C 90% 1022.7 hPa 0 mm - - -
1788325584 15.56° C 90% 1023 hPa 0 mm - - -

* Rain latest hour (hover to see other rain measurements)
** Current wind speed in m/s (hover to see current wind gust speed)